createdAt,value
2022-10-01T00:02:41.673Z,11.05
2022-10-01T00:07:45.305Z,10.99
2022-10-01T00:12:48.570Z,10.91
2022-10-01T00:17:50.089Z,10.70
2022-10-01T00:22:52.357Z,10.70
2022-10-01T00:27:54.016Z,10.83
2022-10-01T00:32:55.743Z,10.80
2022-10-01T00:37:57.575Z,10.81
2022-10-01T00:42:59.108Z,10.68
2022-10-01T00:48:01.110Z,10.50
2022-10-01T00:53:08.916Z,10.43
2022-10-01T00:58:12.701Z,10.53
2022-10-01T01:03:15.013Z,10.50
2022-10-01T01:08:17.178Z,10.60
2022-10-01T01:13:39.405Z,10.66
2022-10-01T01:18:52.184Z,10.42
2022-10-01T01:23:59.418Z,10.48
2022-10-01T01:29:07.091Z,10.45
2022-10-01T01:34:13.223Z,10.44
2022-10-01T01:39:16.151Z,10.38
2022-10-01T01:44:24.626Z,10.34
2022-10-01T01:49:26.261Z,10.21
2022-10-01T01:54:29.510Z,10.28
2022-10-01T01:59:33.858Z,10.17
2022-10-01T02:04:47.341Z,10.07
2022-10-01T02:10:11.084Z,9.90
2022-10-01T02:15:41.952Z,9.94
2022-10-01T02:20:50.614Z,10.42
2022-10-01T02:25:57.932Z,9.93
2022-10-01T02:31:00.077Z,10.09
2022-10-01T02:36:04.863Z,9.90
2022-10-01T02:41:08.206Z,9.61
2022-10-01T02:46:21.498Z,10.13
2022-10-01T02:51:22.983Z,10.19
2022-10-01T02:56:48.819Z,9.61
2022-10-01T03:01:50.922Z,9.76
2022-10-01T03:06:53.145Z,9.96
2022-10-01T03:11:55.102Z,9.40
2022-10-01T03:16:56.643Z,9.77
2022-10-01T03:21:58.206Z,9.95
2022-10-01T03:27:00.084Z,9.74
2022-10-01T03:32:02.012Z,9.67
2022-10-01T03:37:04.092Z,9.68
2022-10-01T03:42:05.943Z,9.67
2022-10-01T03:47:07.515Z,9.42
2022-10-01T03:52:09.056Z,9.36
2022-10-01T03:57:10.594Z,9.47
2022-10-01T04:02:12.255Z,9.82
2022-10-01T04:07:13.934Z,9.64
2022-10-01T04:12:15.522Z,9.69
2022-10-01T04:17:17.187Z,9.71
2022-10-01T04:22:18.674Z,9.69
2022-10-01T04:27:20.160Z,9.57
2022-10-01T04:32:22.201Z,9.56
2022-10-01T04:37:24.226Z,9.53
2022-10-01T04:42:25.759Z,9.58
2022-10-01T04:47:27.323Z,9.47
2022-10-01T04:52:29.463Z,9.78
2022-10-01T04:57:31.038Z,9.72
2022-10-01T05:02:34.526Z,9.73
2022-10-01T05:07:36.693Z,9.41
2022-10-01T05:12:38.210Z,9.96
2022-10-01T05:17:39.844Z,9.92
2022-10-01T05:22:41.437Z,9.72
2022-10-01T05:27:43.125Z,9.86
2022-10-01T05:32:53.731Z,9.96
2022-10-01T05:37:57.197Z,10.14
2022-10-01T05:42:59.769Z,10.33
2022-10-01T05:48:05.953Z,10.03
2022-10-01T05:53:08.427Z,10.09
2022-10-01T05:58:16.599Z,10.26
2022-10-01T06:03:18.141Z,10.26
2022-10-01T06:08:19.666Z,10.28
2022-10-01T06:13:21.158Z,10.49
2022-10-01T06:18:22.868Z,10.56
2022-10-01T06:23:24.399Z,10.51
2022-10-01T06:28:28.177Z,10.46
2022-10-01T06:33:30.020Z,10.58
2022-10-01T06:38:31.532Z,10.61
2022-10-01T06:43:33.395Z,10.85
2022-10-01T06:48:36.546Z,10.87
2022-10-01T06:53:38.302Z,10.97
2022-10-01T06:58:39.842Z,11.08
2022-10-01T07:03:41.354Z,11.08
2022-10-01T07:08:42.869Z,11.16
2022-10-01T07:13:44.446Z,11.22
2022-10-01T07:18:45.974Z,11.26
2022-10-01T07:23:48.446Z,11.25
2022-10-01T07:28:49.949Z,11.28
2022-10-01T07:33:57.539Z,11.40
2022-10-01T07:39:00.681Z,11.45
2022-10-01T07:44:03.386Z,11.40
2022-10-01T07:49:05.186Z,11.41
2022-10-01T07:54:06.712Z,11.65
2022-10-01T07:59:10.079Z,11.68
2022-10-01T08:04:29.971Z,11.81
2022-10-01T08:09:31.601Z,11.91
2022-10-01T08:14:33.148Z,11.96
2022-10-01T08:19:36.270Z,12.00
2022-10-01T08:24:37.816Z,12.11
2022-10-01T08:29:43.236Z,12.23
2022-10-01T08:34:45.085Z,12.25
2022-10-01T08:39:46.685Z,12.29
2022-10-01T08:44:49.073Z,12.37
2022-10-01T08:49:59.347Z,12.42
2022-10-01T08:55:04.726Z,12.54
2022-10-01T09:00:12.246Z,12.68
2022-10-01T09:05:27.394Z,12.76
2022-10-01T09:10:42.182Z,12.89
2022-10-01T09:16:02.001Z,12.97
2022-10-01T09:21:12.162Z,12.89
2022-10-01T09:26:13.731Z,12.95
2022-10-01T09:31:19.955Z,12.96
2022-10-01T09:36:37.787Z,13.02
2022-10-01T09:41:39.357Z,13.10
2022-10-01T09:46:46.109Z,13.11
2022-10-01T09:51:54.610Z,13.11
2022-10-01T09:57:16.396Z,13.24
2022-10-01T10:02:23.939Z,13.26
2022-10-01T10:07:25.702Z,13.34
2022-10-01T10:12:29.893Z,13.40
2022-10-01T10:17:31.434Z,13.45
2022-10-01T10:22:33.065Z,13.49
2022-10-01T10:27:36.423Z,13.55
2022-10-01T10:32:39.656Z,13.59
2022-10-01T10:37:50.251Z,13.62
2022-10-01T10:42:55.959Z,13.65
2022-10-01T10:47:57.889Z,13.61
2022-10-01T10:52:59.640Z,13.58
2022-10-01T10:58:10.939Z,13.51
2022-10-01T11:03:14.849Z,13.51
2022-10-01T11:08:20.753Z,13.53
2022-10-01T11:13:40.773Z,13.46
2022-10-01T11:18:45.149Z,13.37
2022-10-01T11:24:08.081Z,13.42
2022-10-01T11:29:17.770Z,13.26
2022-10-01T11:35:02.263Z,13.16
2022-10-01T11:40:15.354Z,13.21
2022-10-01T11:45:21.365Z,13.04
2022-10-01T11:50:29.005Z,13.02
2022-10-01T11:56:00.345Z,13.09
2022-10-01T12:01:11.615Z,13.07
2022-10-01T12:06:14.775Z,13.05
2022-10-01T12:11:25.871Z,13.12
2022-10-01T12:16:57.183Z,12.96
2022-10-01T12:22:15.458Z,13.01
2022-10-01T12:27:32.794Z,13.00
2022-10-01T12:33:05.287Z,12.94
2022-10-01T12:38:13.971Z,13.01
2022-10-01T12:43:39.218Z,12.99
2022-10-01T12:49:10.498Z,12.96
2022-10-01T12:54:36.788Z,12.86
2022-10-01T12:59:44.485Z,13.00
2022-10-01T13:05:05.047Z,13.05
2022-10-01T13:10:25.271Z,12.90
2022-10-01T13:15:33.341Z,12.84
2022-10-01T13:20:43.713Z,12.84
2022-10-01T13:25:51.389Z,12.87
2022-10-01T13:31:01.759Z,12.86
2022-10-01T13:36:05.255Z,12.79
2022-10-01T13:41:22.545Z,12.79
2022-10-01T13:46:31.130Z,12.85
2022-10-01T13:51:37.745Z,12.77
2022-10-01T13:56:39.290Z,12.75
2022-10-01T14:01:42.282Z,12.71
2022-10-01T14:07:14.517Z,12.75
2022-10-01T14:12:52.671Z,12.74
2022-10-01T14:17:55.796Z,12.81
2022-10-01T14:22:59.917Z,12.86
2022-10-01T14:28:35.891Z,12.75
2022-10-01T14:34:16.391Z,12.72
2022-10-01T14:39:21.861Z,12.85
2022-10-01T14:44:24.725Z,12.83
2022-10-01T14:49:31.654Z,12.91
2022-10-01T14:54:51.466Z,12.95
2022-10-01T14:59:53.422Z,12.94
2022-10-01T15:04:56.902Z,13.04
2022-10-01T15:10:08.419Z,13.10
2022-10-01T15:15:28.192Z,13.20
2022-10-01T15:20:29.876Z,13.26
2022-10-01T15:25:31.789Z,13.31
2022-10-01T15:30:36.107Z,13.32
2022-10-01T15:35:37.721Z,13.39
2022-10-01T15:40:42.649Z,13.44
2022-10-01T15:45:44.298Z,13.50
2022-10-01T15:51:00.497Z,13.48
2022-10-01T15:56:10.503Z,13.49
2022-10-01T16:01:23.295Z,13.50
2022-10-01T16:06:27.563Z,13.44
2022-10-01T16:11:32.813Z,13.37
2022-10-01T16:16:34.541Z,13.34
2022-10-01T16:21:40.297Z,13.25
2022-10-01T16:26:42.087Z,13.31
2022-10-01T16:31:44.626Z,13.20
2022-10-01T16:36:46.779Z,13.22
2022-10-01T16:42:06.233Z,13.12
2022-10-01T16:47:11.801Z,13.14
2022-10-01T16:52:14.210Z,13.15
2022-10-01T16:57:16.571Z,13.10
2022-10-01T17:02:18.258Z,13.12
2022-10-01T17:07:19.781Z,13.14
2022-10-01T17:12:21.599Z,13.18
2022-10-01T17:17:23.063Z,13.20
2022-10-01T17:22:25.396Z,13.19
2022-10-01T17:27:26.959Z,13.24
2022-10-01T17:32:28.520Z,13.20
2022-10-01T17:37:30.029Z,13.14
2022-10-01T17:42:32.844Z,13.18
2022-10-01T17:47:34.366Z,13.20
2022-10-01T17:52:35.841Z,13.20
2022-10-01T17:57:37.317Z,13.24
2022-10-01T18:02:43.313Z,13.32
2022-10-01T18:07:45.366Z,13.28
2022-10-01T18:12:46.844Z,13.35
2022-10-01T18:17:52.196Z,13.38
2022-10-01T18:22:53.727Z,13.33
2022-10-01T18:27:55.255Z,13.42
2022-10-01T18:32:57.172Z,13.38
2022-10-01T18:38:03.698Z,13.46
2022-10-01T18:43:08.037Z,13.35
2022-10-01T18:48:21.798Z,13.32
2022-10-01T18:53:28.034Z,13.40
2022-10-01T18:58:38.032Z,13.33
2022-10-01T19:04:17.646Z,13.31
2022-10-01T19:09:31.378Z,13.36
2022-10-01T19:14:48.106Z,13.38
2022-10-01T19:19:57.336Z,13.27
2022-10-01T19:25:09.338Z,13.40
2022-10-01T19:30:15.841Z,13.25
2022-10-01T19:35:21.416Z,13.29
2022-10-01T19:40:45.887Z,13.30
2022-10-01T19:45:47.572Z,13.28
2022-10-01T19:51:02.155Z,13.30
2022-10-01T19:56:04.458Z,13.27
2022-10-01T20:01:06.060Z,13.24
2022-10-01T20:06:19.778Z,13.18
2022-10-01T20:11:30.784Z,13.23
2022-10-01T20:16:45.245Z,13.18
2022-10-01T20:22:18.592Z,13.11
2022-10-01T20:27:47.063Z,13.15
2022-10-01T20:32:56.190Z,13.02
2022-10-01T20:38:08.866Z,13.10
2022-10-01T20:43:15.825Z,13.10
2022-10-01T20:48:24.386Z,13.03
2022-10-01T20:53:40.762Z,13.08
2022-10-01T20:59:02.498Z,13.07
2022-10-01T21:04:07.618Z,13.04
2022-10-01T21:09:20.378Z,13.00
2022-10-01T21:14:34.480Z,12.98
2022-10-01T21:19:38.825Z,13.00
2022-10-01T21:24:46.367Z,13.03
2022-10-01T21:30:08.402Z,12.94
2022-10-01T21:35:30.733Z,12.90
2022-10-01T21:40:47.558Z,12.93
2022-10-01T21:46:02.344Z,12.88
2022-10-01T21:51:51.361Z,12.89
2022-10-01T21:57:07.290Z,12.95
2022-10-01T22:02:30.465Z,13.02
2022-10-01T22:07:58.504Z,13.04
2022-10-01T22:13:04.635Z,12.87
2022-10-01T22:18:10.604Z,12.93
2022-10-01T22:23:16.967Z,12.93
2022-10-01T22:28:22.978Z,12.82
2022-10-01T22:33:29.735Z,12.85
2022-10-01T22:38:37.034Z,12.87
2022-10-01T22:43:40.409Z,12.94
2022-10-01T22:49:10.616Z,12.81
2022-10-01T22:54:24.087Z,12.83
2022-10-01T22:59:47.221Z,12.76
2022-10-01T23:05:12.171Z,12.85
2022-10-01T23:10:18.239Z,12.85
2022-10-01T23:15:45.853Z,12.80
2022-10-01T23:20:54.101Z,12.71
2022-10-01T23:26:22.394Z,12.73
2022-10-01T23:31:45.428Z,12.70
2022-10-01T23:36:49.354Z,12.77
2022-10-01T23:41:58.503Z,12.64
2022-10-01T23:47:03.263Z,12.70
2022-10-01T23:52:39.973Z,12.77
2022-10-01T23:57:42.147Z,12.62
